sensor_id;sensor_type;location;lat;lon;timestamp;P1;durP1;ratioP1;P2;durP2;ratioP2
65469;SDS011;52067;50.710;14.492;2023-06-22T00:00:43;10.65;;;6.13;;
65469;SDS011;52067;50.710;14.492;2023-06-22T00:03:09;7.78;;;6.30;;
65469;SDS011;52067;50.710;14.492;2023-06-22T00:05:35;11.38;;;6.43;;
65469;SDS011;52067;50.710;14.492;2023-06-22T00:08:02;8.63;;;6.40;;
65469;SDS011;52067;50.710;14.492;2023-06-22T00:10:29;8.18;;;6.35;;
65469;SDS011;52067;50.710;14.492;2023-06-22T00:12:54;9.35;;;6.53;;
65469;SDS011;52067;50.710;14.492;2023-06-22T00:15:20;11.30;;;6.57;;
65469;SDS011;52067;50.710;14.492;2023-06-22T00:17:45;12.57;;;6.70;;
65469;SDS011;52067;50.710;14.492;2023-06-22T00:20:11;9.57;;;6.47;;
65469;SDS011;52067;50.710;14.492;2023-06-22T00:22:36;9.27;;;6.63;;
65469;SDS011;52067;50.710;14.492;2023-06-22T00:25:06;9.45;;;6.65;;
65469;SDS011;52067;50.710;14.492;2023-06-22T00:27:32;10.15;;;6.60;;
65469;SDS011;52067;50.710;14.492;2023-06-22T00:29:57;13.23;;;6.80;;
65469;SDS011;52067;50.710;14.492;2023-06-22T00:32:23;13.00;;;6.93;;
65469;SDS011;52067;50.710;14.492;2023-06-22T00:34:48;12.68;;;6.47;;
65469;SDS011;52067;50.710;14.492;2023-06-22T00:37:15;13.00;;;6.75;;
65469;SDS011;52067;50.710;14.492;2023-06-22T00:39:41;15.50;;;7.32;;
65469;SDS011;52067;50.710;14.492;2023-06-22T00:42:06;12.25;;;6.82;;
65469;SDS011;52067;50.710;14.492;2023-06-22T00:44:32;11.75;;;6.32;;
65469;SDS011;52067;50.710;14.492;2023-06-22T00:46:57;20.45;;;7.00;;
65469;SDS011;52067;50.710;14.492;2023-06-22T00:49:25;14.65;;;7.20;;
65469;SDS011;52067;50.710;14.492;2023-06-22T00:51:50;14.02;;;7.10;;
65469;SDS011;52067;50.710;14.492;2023-06-22T00:54:16;15.35;;;7.38;;
65469;SDS011;52067;50.710;14.492;2023-06-22T00:56:41;12.15;;;7.03;;
65469;SDS011;52067;50.710;14.492;2023-06-22T00:59:07;11.02;;;6.97;;
65469;SDS011;52067;50.710;14.492;2023-06-22T01:01:37;15.93;;;6.95;;
65469;SDS011;52067;50.710;14.492;2023-06-22T01:04:06;14.27;;;6.78;;
65469;SDS011;52067;50.710;14.492;2023-06-22T01:06:34;13.15;;;7.53;;
65469;SDS011;52067;50.710;14.492;2023-06-22T01:09:09;11.48;;;7.47;;
65469;SDS011;52067;50.710;14.492;2023-06-22T01:11:45;15.27;;;7.15;;
65469;SDS011;52067;50.710;14.492;2023-06-22T01:14:24;11.77;;;6.45;;
65469;SDS011;52067;50.710;14.492;2023-06-22T01:16:51;17.58;;;6.45;;
65469;SDS011;52067;50.710;14.492;2023-06-22T01:19:37;13.18;;;6.95;;
65469;SDS011;52067;50.710;14.492;2023-06-22T01:22:12;15.43;;;6.97;;
65469;SDS011;52067;50.710;14.492;2023-06-22T01:24:48;13.20;;;7.32;;
65469;SDS011;52067;50.710;14.492;2023-06-22T01:27:32;11.75;;;7.25;;
65469;SDS011;52067;50.710;14.492;2023-06-22T01:30:06;11.30;;;7.15;;
65469;SDS011;52067;50.710;14.492;2023-06-22T01:32:35;13.52;;;6.85;;
65469;SDS011;52067;50.710;14.492;2023-06-22T01:35:03;16.42;;;6.47;;
65469;SDS011;52067;50.710;14.492;2023-06-22T01:37:31;10.52;;;6.90;;
65469;SDS011;52067;50.710;14.492;2023-06-22T01:39:58;13.30;;;7.13;;
65469;SDS011;52067;50.710;14.492;2023-06-22T01:42:24;12.43;;;7.47;;
65469;SDS011;52067;50.710;14.492;2023-06-22T01:44:53;11.10;;;7.20;;
65469;SDS011;52067;50.710;14.492;2023-06-22T01:47:20;11.02;;;7.40;;
65469;SDS011;52067;50.710;14.492;2023-06-22T01:49:47;9.65;;;7.28;;
65469;SDS011;52067;50.710;14.492;2023-06-22T01:52:13;10.45;;;7.38;;
65469;SDS011;52067;50.710;14.492;2023-06-22T01:54:39;12.95;;;7.40;;
65469;SDS011;52067;50.710;14.492;2023-06-22T01:57:05;10.38;;;7.10;;
65469;SDS011;52067;50.710;14.492;2023-06-22T02:02:22;14.10;;;7.47;;
65469;SDS011;52067;50.710;14.492;2023-06-22T02:04:59;13.95;;;7.05;;
65469;SDS011;52067;50.710;14.492;2023-06-22T02:07:32;17.20;;;7.03;;
65469;SDS011;52067;50.710;14.492;2023-06-22T02:10:03;12.95;;;6.85;;
65469;SDS011;52067;50.710;14.492;2023-06-22T02:12:31;11.52;;;7.40;;
65469;SDS011;52067;50.710;14.492;2023-06-22T02:14:58;10.43;;;7.68;;
65469;SDS011;52067;50.710;14.492;2023-06-22T02:17:26;16.17;;;6.93;;
65469;SDS011;52067;50.710;14.492;2023-06-22T02:19:51;9.35;;;6.97;;
65469;SDS011;52067;50.710;14.492;2023-06-22T02:22:17;14.02;;;7.20;;
65469;SDS011;52067;50.710;14.492;2023-06-22T02:24:43;10.23;;;7.35;;
65469;SDS011;52067;50.710;14.492;2023-06-22T02:27:08;12.10;;;8.02;;
65469;SDS011;52067;50.710;14.492;2023-06-22T02:29:34;11.70;;;7.85;;
65469;SDS011;52067;50.710;14.492;2023-06-22T02:31:59;13.65;;;7.25;;
65469;SDS011;52067;50.710;14.492;2023-06-22T02:34:25;9.32;;;6.57;;
65469;SDS011;52067;50.710;14.492;2023-06-22T02:36:51;11.30;;;7.22;;
65469;SDS011;52067;50.710;14.492;2023-06-22T02:39:20;10.30;;;7.28;;
65469;SDS011;52067;50.710;14.492;2023-06-22T02:41:48;13.32;;;7.10;;
65469;SDS011;52067;50.710;14.492;2023-06-22T02:44:18;11.13;;;7.30;;
65469;SDS011;52067;50.710;14.492;2023-06-22T02:46:44;14.80;;;7.75;;
65469;SDS011;52067;50.710;14.492;2023-06-22T02:49:10;18.00;;;7.13;;
65469;SDS011;52067;50.710;14.492;2023-06-22T02:51:37;12.75;;;8.30;;
65469;SDS011;52067;50.710;14.492;2023-06-22T02:54:04;10.73;;;7.90;;
65469;SDS011;52067;50.710;14.492;2023-06-22T02:56:32;13.20;;;8.48;;
65469;SDS011;52067;50.710;14.492;2023-06-22T02:58:58;11.57;;;7.82;;
65469;SDS011;52067;50.710;14.492;2023-06-22T03:01:29;11.55;;;8.15;;
65469;SDS011;52067;50.710;14.492;2023-06-22T03:04:05;14.68;;;8.35;;
65469;SDS011;52067;50.710;14.492;2023-06-22T03:06:31;14.48;;;8.43;;
65469;SDS011;52067;50.710;14.492;2023-06-22T03:08:59;12.20;;;8.05;;
65469;SDS011;52067;50.710;14.492;2023-06-22T03:11:26;12.75;;;8.50;;
65469;SDS011;52067;50.710;14.492;2023-06-22T03:13:51;13.82;;;8.45;;
65469;SDS011;52067;50.710;14.492;2023-06-22T03:16:18;11.32;;;8.55;;
65469;SDS011;52067;50.710;14.492;2023-06-22T03:18:43;13.23;;;8.65;;
65469;SDS011;52067;50.710;14.492;2023-06-22T03:21:09;13.50;;;8.48;;
65469;SDS011;52067;50.710;14.492;2023-06-22T03:23:35;12.15;;;8.70;;
65469;SDS011;52067;50.710;14.492;2023-06-22T03:26:01;10.55;;;8.10;;
65469;SDS011;52067;50.710;14.492;2023-06-22T03:28:27;12.40;;;8.60;;
65469;SDS011;52067;50.710;14.492;2023-06-22T03:30:52;12.63;;;8.02;;
65469;SDS011;52067;50.710;14.492;2023-06-22T03:33:17;11.65;;;8.50;;
65469;SDS011;52067;50.710;14.492;2023-06-22T03:35:43;15.80;;;9.02;;
65469;SDS011;52067;50.710;14.492;2023-06-22T03:38:08;16.80;;;8.93;;
65469;SDS011;52067;50.710;14.492;2023-06-22T03:40:33;15.15;;;8.73;;
65469;SDS011;52067;50.710;14.492;2023-06-22T03:42:59;18.95;;;9.57;;
65469;SDS011;52067;50.710;14.492;2023-06-22T03:45:24;12.85;;;8.18;;
65469;SDS011;52067;50.710;14.492;2023-06-22T03:47:49;14.90;;;7.80;;
65469;SDS011;52067;50.710;14.492;2023-06-22T03:50:15;16.27;;;8.98;;
65469;SDS011;52067;50.710;14.492;2023-06-22T03:52:40;12.75;;;8.65;;
65469;SDS011;52067;50.710;14.492;2023-06-22T03:55:06;17.15;;;9.68;;
65469;SDS011;52067;50.710;14.492;2023-06-22T03:57:32;12.18;;;7.50;;
65469;SDS011;52067;50.710;14.492;2023-06-22T03:59:58;16.73;;;8.55;;
65469;SDS011;52067;50.710;14.492;2023-06-22T04:02:24;18.80;;;8.43;;
65469;SDS011;52067;50.710;14.492;2023-06-22T04:04:50;12.45;;;8.25;;
65469;SDS011;52067;50.710;14.492;2023-06-22T04:07:15;14.80;;;7.88;;
65469;SDS011;52067;50.710;14.492;2023-06-22T04:09:40;14.60;;;8.07;;
65469;SDS011;52067;50.710;14.492;2023-06-22T04:12:06;9.93;;;7.68;;
65469;SDS011;52067;50.710;14.492;2023-06-22T04:14:32;14.90;;;8.13;;
65469;SDS011;52067;50.710;14.492;2023-06-22T04:16:57;15.38;;;8.20;;
65469;SDS011;52067;50.710;14.492;2023-06-22T04:19:23;16.85;;;8.27;;
65469;SDS011;52067;50.710;14.492;2023-06-22T04:21:48;16.20;;;8.02;;
65469;SDS011;52067;50.710;14.492;2023-06-22T04:24:14;14.45;;;8.57;;
65469;SDS011;52067;50.710;14.492;2023-06-22T04:26:39;11.07;;;8.30;;
65469;SDS011;52067;50.710;14.492;2023-06-22T04:29:06;15.13;;;8.02;;
65469;SDS011;52067;50.710;14.492;2023-06-22T04:31:34;11.52;;;8.27;;
65469;SDS011;52067;50.710;14.492;2023-06-22T04:34:06;11.60;;;7.60;;
65469;SDS011;52067;50.710;14.492;2023-06-22T04:36:33;14.40;;;8.82;;
65469;SDS011;52067;50.710;14.492;2023-06-22T04:39:11;11.60;;;8.25;;
65469;SDS011;52067;50.710;14.492;2023-06-22T04:41:37;11.10;;;7.90;;
65469;SDS011;52067;50.710;14.492;2023-06-22T04:44:10;14.15;;;7.75;;
65469;SDS011;52067;50.710;14.492;2023-06-22T04:46:35;9.90;;;7.45;;
65469;SDS011;52067;50.710;14.492;2023-06-22T04:49:03;11.63;;;7.80;;
65469;SDS011;52067;50.710;14.492;2023-06-22T04:51:31;11.52;;;7.95;;
65469;SDS011;52067;50.710;14.492;2023-06-22T04:53:57;10.88;;;7.47;;
65469;SDS011;52067;50.710;14.492;2023-06-22T04:56:25;12.43;;;7.57;;
65469;SDS011;52067;50.710;14.492;2023-06-22T04:58:52;12.80;;;8.07;;
65469;SDS011;52067;50.710;14.492;2023-06-22T05:01:22;12.10;;;7.38;;
65469;SDS011;52067;50.710;14.492;2023-06-22T05:03:48;12.07;;;7.65;;
65469;SDS011;52067;50.710;14.492;2023-06-22T05:06:14;10.13;;;7.35;;
65469;SDS011;52067;50.710;14.492;2023-06-22T05:08:40;10.90;;;7.90;;
65469;SDS011;52067;50.710;14.492;2023-06-22T05:11:05;11.80;;;7.80;;
65469;SDS011;52067;50.710;14.492;2023-06-22T05:13:31;9.95;;;7.05;;
65469;SDS011;52067;50.710;14.492;2023-06-22T05:15:57;12.45;;;7.63;;
65469;SDS011;52067;50.710;14.492;2023-06-22T05:18:29;14.07;;;7.28;;
65469;SDS011;52067;50.710;14.492;2023-06-22T05:20:55;8.57;;;6.95;;
65469;SDS011;52067;50.710;14.492;2023-06-22T05:23:21;10.77;;;7.00;;
65469;SDS011;52067;50.710;14.492;2023-06-22T05:25:46;10.65;;;7.63;;
65469;SDS011;52067;50.710;14.492;2023-06-22T05:28:12;12.32;;;7.65;;
65469;SDS011;52067;50.710;14.492;2023-06-22T05:30:37;10.73;;;7.35;;
65469;SDS011;52067;50.710;14.492;2023-06-22T05:33:03;11.27;;;7.47;;
65469;SDS011;52067;50.710;14.492;2023-06-22T05:35:28;11.40;;;7.75;;
65469;SDS011;52067;50.710;14.492;2023-06-22T05:37:54;15.55;;;7.85;;
65469;SDS011;52067;50.710;14.492;2023-06-22T05:40:20;13.90;;;8.23;;
65469;SDS011;52067;50.710;14.492;2023-06-22T05:42:46;11.38;;;7.85;;
65469;SDS011;52067;50.710;14.492;2023-06-22T05:45:11;12.13;;;7.55;;
65469;SDS011;52067;50.710;14.492;2023-06-22T05:47:37;11.45;;;8.15;;
65469;SDS011;52067;50.710;14.492;2023-06-22T05:50:02;12.75;;;7.30;;
65469;SDS011;52067;50.710;14.492;2023-06-22T05:52:31;11.35;;;7.88;;
65469;SDS011;52067;50.710;14.492;2023-06-22T05:54:57;10.27;;;7.60;;
65469;SDS011;52067;50.710;14.492;2023-06-22T05:57:22;10.70;;;7.57;;
65469;SDS011;52067;50.710;14.492;2023-06-22T05:59:48;9.65;;;7.18;;
65469;SDS011;52067;50.710;14.492;2023-06-22T06:02:13;11.38;;;8.10;;
65469;SDS011;52067;50.710;14.492;2023-06-22T06:04:39;10.30;;;8.30;;
65469;SDS011;52067;50.710;14.492;2023-06-22T06:07:04;9.50;;;7.03;;
65469;SDS011;52067;50.710;14.492;2023-06-22T06:09:30;11.27;;;7.50;;
65469;SDS011;52067;50.710;14.492;2023-06-22T06:11:55;10.85;;;7.95;;
65469;SDS011;52067;50.710;14.492;2023-06-22T06:14:21;12.10;;;7.68;;
65469;SDS011;52067;50.710;14.492;2023-06-22T06:16:46;12.13;;;7.65;;
65469;SDS011;52067;50.710;14.492;2023-06-22T06:19:13;13.00;;;7.80;;
65469;SDS011;52067;50.710;14.492;2023-06-22T06:21:38;12.63;;;7.75;;
65469;SDS011;52067;50.710;14.492;2023-06-22T06:24:04;10.95;;;7.70;;
65469;SDS011;52067;50.710;14.492;2023-06-22T06:26:29;9.75;;;7.57;;
65469;SDS011;52067;50.710;14.492;2023-06-22T06:28:57;11.02;;;7.70;;
65469;SDS011;52067;50.710;14.492;2023-06-22T06:31:24;10.15;;;7.78;;
65469;SDS011;52067;50.710;14.492;2023-06-22T06:33:49;10.60;;;7.47;;
65469;SDS011;52067;50.710;14.492;2023-06-22T06:36:15;13.52;;;7.25;;
65469;SDS011;52067;50.710;14.492;2023-06-22T06:38:41;12.35;;;7.53;;
65469;SDS011;52067;50.710;14.492;2023-06-22T06:41:07;9.98;;;7.43;;
65469;SDS011;52067;50.710;14.492;2023-06-22T06:43:32;11.13;;;7.63;;
65469;SDS011;52067;50.710;14.492;2023-06-22T06:45:57;9.77;;;7.47;;
65469;SDS011;52067;50.710;14.492;2023-06-22T06:48:23;10.23;;;7.88;;
65469;SDS011;52067;50.710;14.492;2023-06-22T06:50:48;13.35;;;7.78;;
65469;SDS011;52067;50.710;14.492;2023-06-22T06:53:13;13.20;;;7.25;;
65469;SDS011;52067;50.710;14.492;2023-06-22T06:55:39;10.68;;;7.72;;
65469;SDS011;52067;50.710;14.492;2023-06-22T06:58:04;10.98;;;7.22;;
65469;SDS011;52067;50.710;14.492;2023-06-22T07:00:32;11.10;;;7.90;;
65469;SDS011;52067;50.710;14.492;2023-06-22T07:02:58;10.40;;;7.40;;
65469;SDS011;52067;50.710;14.492;2023-06-22T07:05:23;11.23;;;7.57;;
65469;SDS011;52067;50.710;14.492;2023-06-22T07:07:49;10.18;;;7.55;;
65469;SDS011;52067;50.710;14.492;2023-06-22T07:10:14;8.65;;;7.00;;
65469;SDS011;52067;50.710;14.492;2023-06-22T07:12:40;11.82;;;7.90;;
65469;SDS011;52067;50.710;14.492;2023-06-22T07:15:06;11.77;;;7.60;;
65469;SDS011;52067;50.710;14.492;2023-06-22T07:17:33;12.45;;;8.43;;
65469;SDS011;52067;50.710;14.492;2023-06-22T07:19:59;10.40;;;7.75;;
65469;SDS011;52067;50.710;14.492;2023-06-22T07:22:24;14.60;;;7.63;;
65469;SDS011;52067;50.710;14.492;2023-06-22T07:24:50;11.10;;;7.82;;
65469;SDS011;52067;50.710;14.492;2023-06-22T07:27:16;12.57;;;7.75;;
65469;SDS011;52067;50.710;14.492;2023-06-22T07:29:45;10.40;;;7.80;;
65469;SDS011;52067;50.710;14.492;2023-06-22T07:32:11;10.82;;;7.55;;
65469;SDS011;52067;50.710;14.492;2023-06-22T07:34:36;9.95;;;7.80;;
65469;SDS011;52067;50.710;14.492;2023-06-22T07:37:02;14.60;;;8.32;;
65469;SDS011;52067;50.710;14.492;2023-06-22T07:39:28;10.38;;;8.30;;
65469;SDS011;52067;50.710;14.492;2023-06-22T07:41:53;9.45;;;8.00;;
65469;SDS011;52067;50.710;14.492;2023-06-22T07:44:19;10.95;;;8.73;;
65469;SDS011;52067;50.710;14.492;2023-06-22T07:46:44;10.73;;;8.48;;
65469;SDS011;52067;50.710;14.492;2023-06-22T07:49:10;12.02;;;8.63;;
65469;SDS011;52067;50.710;14.492;2023-06-22T07:51:35;14.82;;;8.40;;
65469;SDS011;52067;50.710;14.492;2023-06-22T07:54:00;13.75;;;9.80;;
65469;SDS011;52067;50.710;14.492;2023-06-22T07:56:26;14.10;;;9.15;;
65469;SDS011;52067;50.710;14.492;2023-06-22T07:58:52;13.10;;;9.38;;
65469;SDS011;52067;50.710;14.492;2023-06-22T08:01:18;11.52;;;8.82;;
65469;SDS011;52067;50.710;14.492;2023-06-22T08:03:46;13.10;;;8.75;;
65469;SDS011;52067;50.710;14.492;2023-06-22T08:06:14;11.73;;;8.35;;
65469;SDS011;52067;50.710;14.492;2023-06-22T08:08:39;10.43;;;8.75;;
65469;SDS011;52067;50.710;14.492;2023-06-22T08:11:05;9.98;;;8.35;;
65469;SDS011;52067;50.710;14.492;2023-06-22T08:13:30;9.90;;;7.85;;
65469;SDS011;52067;50.710;14.492;2023-06-22T08:15:56;10.80;;;8.88;;
65469;SDS011;52067;50.710;14.492;2023-06-22T08:18:21;12.65;;;9.00;;
65469;SDS011;52067;50.710;14.492;2023-06-22T08:20:47;10.45;;;8.23;;
65469;SDS011;52067;50.710;14.492;2023-06-22T08:23:12;11.30;;;8.35;;
65469;SDS011;52067;50.710;14.492;2023-06-22T08:25:37;11.55;;;8.55;;
65469;SDS011;52067;50.710;14.492;2023-06-22T08:28:03;13.15;;;8.82;;
65469;SDS011;52067;50.710;14.492;2023-06-22T08:30:29;12.82;;;8.68;;
65469;SDS011;52067;50.710;14.492;2023-06-22T08:32:54;10.00;;;8.05;;
65469;SDS011;52067;50.710;14.492;2023-06-22T08:35:22;14.23;;;9.10;;
65469;SDS011;52067;50.710;14.492;2023-06-22T08:37:48;10.25;;;8.43;;
65469;SDS011;52067;50.710;14.492;2023-06-22T08:40:17;11.48;;;8.35;;
65469;SDS011;52067;50.710;14.492;2023-06-22T08:42:45;9.57;;;7.70;;
65469;SDS011;52067;50.710;14.492;2023-06-22T08:45:11;9.77;;;7.82;;
65469;SDS011;52067;50.710;14.492;2023-06-22T08:47:37;11.73;;;8.50;;
65469;SDS011;52067;50.710;14.492;2023-06-22T08:50:02;11.48;;;8.38;;
65469;SDS011;52067;50.710;14.492;2023-06-22T08:52:28;12.25;;;8.07;;
65469;SDS011;52067;50.710;14.492;2023-06-22T08:54:54;10.95;;;7.68;;
65469;SDS011;52067;50.710;14.492;2023-06-22T08:57:20;9.77;;;7.82;;
65469;SDS011;52067;50.710;14.492;2023-06-22T08:59:46;10.57;;;7.47;;
65469;SDS011;52067;50.710;14.492;2023-06-22T09:02:12;13.73;;;7.95;;
65469;SDS011;52067;50.710;14.492;2023-06-22T09:04:37;10.68;;;7.72;;
65469;SDS011;52067;50.710;14.492;2023-06-22T09:07:03;13.07;;;7.88;;
65469;SDS011;52067;50.710;14.492;2023-06-22T09:09:28;10.48;;;7.43;;
65469;SDS011;52067;50.710;14.492;2023-06-22T09:11:54;10.77;;;7.70;;
65469;SDS011;52067;50.710;14.492;2023-06-22T09:14:19;8.50;;;6.75;;
65469;SDS011;52067;50.710;14.492;2023-06-22T09:16:44;10.82;;;7.60;;
65469;SDS011;52067;50.710;14.492;2023-06-22T09:19:10;12.68;;;7.78;;
65469;SDS011;52067;50.710;14.492;2023-06-22T09:21:35;13.65;;;7.57;;
65469;SDS011;52067;50.710;14.492;2023-06-22T09:24:01;9.20;;;7.35;;
65469;SDS011;52067;50.710;14.492;2023-06-22T09:26:27;13.00;;;7.22;;
65469;SDS011;52067;50.710;14.492;2023-06-22T09:28:52;10.15;;;6.88;;
65469;SDS011;52067;50.710;14.492;2023-06-22T09:31:17;9.48;;;7.72;;
65469;SDS011;52067;50.710;14.492;2023-06-22T09:33:50;9.77;;;7.80;;
65469;SDS011;52067;50.710;14.492;2023-06-22T09:36:15;13.02;;;7.32;;
65469;SDS011;52067;50.710;14.492;2023-06-22T09:38:42;12.02;;;7.38;;
65469;SDS011;52067;50.710;14.492;2023-06-22T09:41:07;8.65;;;7.40;;
65469;SDS011;52067;50.710;14.492;2023-06-22T09:43:32;10.68;;;7.28;;
65469;SDS011;52067;50.710;14.492;2023-06-22T09:46:01;10.05;;;7.13;;
65469;SDS011;52067;50.710;14.492;2023-06-22T09:48:27;10.02;;;7.57;;
65469;SDS011;52067;50.710;14.492;2023-06-22T09:50:53;12.30;;;7.00;;
65469;SDS011;52067;50.710;14.492;2023-06-22T09:53:19;11.32;;;7.75;;
65469;SDS011;52067;50.710;14.492;2023-06-22T09:55:44;9.85;;;7.20;;
65469;SDS011;52067;50.710;14.492;2023-06-22T09:58:10;8.90;;;7.47;;
65469;SDS011;52067;50.710;14.492;2023-06-22T10:00:35;9.32;;;7.43;;
65469;SDS011;52067;50.710;14.492;2023-06-22T10:03:00;15.35;;;7.20;;
65469;SDS011;52067;50.710;14.492;2023-06-22T10:05:26;9.40;;;7.18;;
65469;SDS011;52067;50.710;14.492;2023-06-22T10:07:51;9.30;;;6.88;;
65469;SDS011;52067;50.710;14.492;2023-06-22T10:10:17;10.18;;;7.82;;
65469;SDS011;52067;50.710;14.492;2023-06-22T10:12:45;11.10;;;7.15;;
65469;SDS011;52067;50.710;14.492;2023-06-22T10:15:12;12.48;;;7.78;;
65469;SDS011;52067;50.710;14.492;2023-06-22T10:17:38;10.38;;;7.28;;
65469;SDS011;52067;50.710;14.492;2023-06-22T10:20:05;9.38;;;6.60;;
65469;SDS011;52067;50.710;14.492;2023-06-22T10:22:38;8.60;;;7.10;;
65469;SDS011;52067;50.710;14.492;2023-06-22T10:25:06;10.38;;;7.55;;
65469;SDS011;52067;50.710;14.492;2023-06-22T10:27:33;9.18;;;7.03;;
65469;SDS011;52067;50.710;14.492;2023-06-22T10:29:58;8.77;;;7.28;;
65469;SDS011;52067;50.710;14.492;2023-06-22T10:32:24;10.07;;;6.68;;
65469;SDS011;52067;50.710;14.492;2023-06-22T10:34:49;10.20;;;6.60;;
65469;SDS011;52067;50.710;14.492;2023-06-22T10:37:14;9.25;;;7.00;;
65469;SDS011;52067;50.710;14.492;2023-06-22T10:39:40;8.18;;;6.55;;
65469;SDS011;52067;50.710;14.492;2023-06-22T10:42:05;11.98;;;6.80;;
65469;SDS011;52067;50.710;14.492;2023-06-22T10:44:31;8.73;;;7.53;;
65469;SDS011;52067;50.710;14.492;2023-06-22T10:46:56;7.95;;;6.95;;
65469;SDS011;52067;50.710;14.492;2023-06-22T10:49:21;11.18;;;7.45;;
65469;SDS011;52067;50.710;14.492;2023-06-22T10:51:47;10.15;;;6.90;;
65469;SDS011;52067;50.710;14.492;2023-06-22T10:54:12;11.00;;;6.72;;
65469;SDS011;52067;50.710;14.492;2023-06-22T10:56:39;8.93;;;6.72;;
65469;SDS011;52067;50.710;14.492;2023-06-22T10:59:05;8.43;;;6.60;;
65469;SDS011;52067;50.710;14.492;2023-06-22T11:01:30;7.75;;;6.18;;
65469;SDS011;52067;50.710;14.492;2023-06-22T11:03:58;7.95;;;6.20;;
65469;SDS011;52067;50.710;14.492;2023-06-22T11:06:24;7.07;;;6.13;;
65469;SDS011;52067;50.710;14.492;2023-06-22T11:08:49;8.63;;;6.70;;
65469;SDS011;52067;50.710;14.492;2023-06-22T11:11:15;11.07;;;6.22;;
65469;SDS011;52067;50.710;14.492;2023-06-22T11:13:42;8.48;;;6.55;;
65469;SDS011;52067;50.710;14.492;2023-06-22T11:16:08;8.20;;;6.50;;
65469;SDS011;52067;50.710;14.492;2023-06-22T11:18:34;7.55;;;5.90;;
65469;SDS011;52067;50.710;14.492;2023-06-22T11:21:00;7.28;;;6.20;;
65469;SDS011;52067;50.710;14.492;2023-06-22T11:23:25;8.43;;;6.43;;
65469;SDS011;52067;50.710;14.492;2023-06-22T11:25:52;8.43;;;6.15;;
65469;SDS011;52067;50.710;14.492;2023-06-22T11:28:17;8.40;;;6.32;;
65469;SDS011;52067;50.710;14.492;2023-06-22T11:30:43;9.80;;;6.40;;
65469;SDS011;52067;50.710;14.492;2023-06-22T11:33:08;9.43;;;6.10;;
65469;SDS011;52067;50.710;14.492;2023-06-22T11:35:34;9.90;;;6.60;;
65469;SDS011;52067;50.710;14.492;2023-06-22T11:37:59;8.73;;;6.32;;
65469;SDS011;52067;50.710;14.492;2023-06-22T11:40:24;7.40;;;6.15;;
65469;SDS011;52067;50.710;14.492;2023-06-22T11:42:50;9.32;;;6.05;;
65469;SDS011;52067;50.710;14.492;2023-06-22T11:45:15;8.73;;;6.18;;
65469;SDS011;52067;50.710;14.492;2023-06-22T11:47:42;10.02;;;5.70;;
65469;SDS011;52067;50.710;14.492;2023-06-22T11:50:08;9.45;;;6.28;;
65469;SDS011;52067;50.710;14.492;2023-06-22T11:52:33;9.07;;;5.80;;
65469;SDS011;52067;50.710;14.492;2023-06-22T11:55:00;7.00;;;5.80;;
65469;SDS011;52067;50.710;14.492;2023-06-22T11:57:28;7.93;;;5.57;;
65469;SDS011;52067;50.710;14.492;2023-06-22T11:59:54;7.15;;;5.85;;
65469;SDS011;52067;50.710;14.492;2023-06-22T12:02:19;7.57;;;5.85;;
65469;SDS011;52067;50.710;14.492;2023-06-22T12:04:44;7.75;;;5.70;;
65469;SDS011;52067;50.710;14.492;2023-06-22T12:07:10;7.93;;;6.07;;
65469;SDS011;52067;50.710;14.492;2023-06-22T12:09:35;10.93;;;6.35;;
65469;SDS011;52067;50.710;14.492;2023-06-22T12:12:01;7.22;;;5.88;;
65469;SDS011;52067;50.710;14.492;2023-06-22T12:14:26;6.63;;;5.57;;
65469;SDS011;52067;50.710;14.492;2023-06-22T12:16:51;11.43;;;5.90;;
65469;SDS011;52067;50.710;14.492;2023-06-22T12:19:17;7.90;;;6.50;;
65469;SDS011;52067;50.710;14.492;2023-06-22T12:21:42;10.50;;;5.85;;
65469;SDS011;52067;50.710;14.492;2023-06-22T12:24:10;7.97;;;6.13;;
65469;SDS011;52067;50.710;14.492;2023-06-22T12:26:35;8.98;;;5.80;;
65469;SDS011;52067;50.710;14.492;2023-06-22T12:29:01;8.50;;;5.80;;
65469;SDS011;52067;50.710;14.492;2023-06-22T12:31:26;8.73;;;5.85;;
65469;SDS011;52067;50.710;14.492;2023-06-22T12:33:52;8.35;;;5.53;;
65469;SDS011;52067;50.710;14.492;2023-06-22T12:36:18;8.85;;;5.97;;
65469;SDS011;52067;50.710;14.492;2023-06-22T12:38:43;8.85;;;5.53;;
65469;SDS011;52067;50.710;14.492;2023-06-22T12:41:08;8.38;;;6.28;;
65469;SDS011;52067;50.710;14.492;2023-06-22T12:43:34;8.98;;;5.65;;
65469;SDS011;52067;50.710;14.492;2023-06-22T12:45:59;9.45;;;5.80;;
65469;SDS011;52067;50.710;14.492;2023-06-22T12:48:25;6.68;;;5.72;;
65469;SDS011;52067;50.710;14.492;2023-06-22T12:50:52;7.38;;;5.68;;
65469;SDS011;52067;50.710;14.492;2023-06-22T12:53:17;7.65;;;5.68;;
65469;SDS011;52067;50.710;14.492;2023-06-22T12:55:42;8.55;;;5.72;;
65469;SDS011;52067;50.710;14.492;2023-06-22T12:58:08;10.55;;;5.38;;
65469;SDS011;52067;50.710;14.492;2023-06-22T13:00:33;7.32;;;6.13;;
65469;SDS011;52067;50.710;14.492;2023-06-22T13:02:58;7.05;;;5.45;;
65469;SDS011;52067;50.710;14.492;2023-06-22T13:05:24;6.70;;;5.55;;
65469;SDS011;52067;50.710;14.492;2023-06-22T13:07:49;9.98;;;5.78;;
65469;SDS011;52067;50.710;14.492;2023-06-22T13:10:14;6.63;;;5.10;;
65469;SDS011;52067;50.710;14.492;2023-06-22T13:12:40;6.47;;;5.20;;
65469;SDS011;52067;50.710;14.492;2023-06-22T13:15:06;7.65;;;5.18;;
65469;SDS011;52067;50.710;14.492;2023-06-22T13:17:31;6.47;;;5.30;;
65469;SDS011;52067;50.710;14.492;2023-06-22T13:19:57;6.68;;;5.20;;
65469;SDS011;52067;50.710;14.492;2023-06-22T13:22:26;6.23;;;4.97;;
65469;SDS011;52067;50.710;14.492;2023-06-22T13:24:54;7.38;;;5.47;;
65469;SDS011;52067;50.710;14.492;2023-06-22T13:27:19;8.02;;;5.50;;
65469;SDS011;52067;50.710;14.492;2023-06-22T13:29:45;7.38;;;4.97;;
65469;SDS011;52067;50.710;14.492;2023-06-22T13:32:10;7.22;;;5.38;;
65469;SDS011;52067;50.710;14.492;2023-06-22T13:34:35;6.05;;;5.43;;
65469;SDS011;52067;50.710;14.492;2023-06-22T13:37:01;6.20;;;5.30;;
65469;SDS011;52067;50.710;14.492;2023-06-22T13:39:26;8.40;;;5.20;;
65469;SDS011;52067;50.710;14.492;2023-06-22T13:41:51;6.35;;;5.20;;
65469;SDS011;52067;50.710;14.492;2023-06-22T13:44:17;6.88;;;5.20;;
65469;SDS011;52067;50.710;14.492;2023-06-22T13:46:42;10.05;;;5.40;;
65469;SDS011;52067;50.710;14.492;2023-06-22T13:49:08;8.65;;;5.57;;
65469;SDS011;52067;50.710;14.492;2023-06-22T13:51:33;12.98;;;5.65;;
65469;SDS011;52067;50.710;14.492;2023-06-22T13:53:58;6.18;;;5.15;;
65469;SDS011;52067;50.710;14.492;2023-06-22T13:56:24;7.60;;;5.32;;
65469;SDS011;52067;50.710;14.492;2023-06-22T13:58:49;6.82;;;5.13;;
65469;SDS011;52067;50.710;14.492;2023-06-22T14:01:14;9.13;;;5.25;;
65469;SDS011;52067;50.710;14.492;2023-06-22T14:03:40;7.03;;;5.40;;
65469;SDS011;52067;50.710;14.492;2023-06-22T14:06:05;6.55;;;5.28;;
65469;SDS011;52067;50.710;14.492;2023-06-22T14:08:31;6.28;;;5.38;;
65469;SDS011;52067;50.710;14.492;2023-06-22T14:10:56;7.90;;;5.53;;
65469;SDS011;52067;50.710;14.492;2023-06-22T14:13:22;7.35;;;5.90;;
65469;SDS011;52067;50.710;14.492;2023-06-22T14:15:47;8.25;;;5.85;;
65469;SDS011;52067;50.710;14.492;2023-06-22T14:18:13;6.22;;;5.30;;
65469;SDS011;52067;50.710;14.492;2023-06-22T14:20:39;7.32;;;5.10;;
65469;SDS011;52067;50.710;14.492;2023-06-22T14:23:05;6.55;;;5.10;;